This is the latest recevied weather packets stored in our database for station/object VE6EN. If no packets are shown the sender has not sent any weather packets the latest 10 day(s).
| Time | Temp. | Humidity | Pressure | Rain* | Wind** | Luminosity | Snow |
|---|---|---|---|---|---|---|---|
| 1787545215 | 13.33° C | 71% | 1013.1 hPa | 0 mm | - | - | - |
| 1787544604 | 13.33° C | 69% | 1013 hPa | 0 mm | - | - | - |
| 1787544009 | 13.33° C | 66% | 1012.6 hPa | 0 mm | - | - | - |
| 1787543407 | 13.33° C | 67% | 1012.6 hPa | 0 mm | - | - | - |
| 1787542803 | 13.89° C | 68% | 1012.8 hPa | 0 mm | - | - | - |
| 1787542208 | 13.89° C | 65% | 1012.7 hPa | 0 mm | - | - | - |
| 1787541612 | 13.89° C | 64% | 1012.2 hPa | 0 mm | - | - | - |
| 1787540405 | 13.89° C | 66% | 1011.7 hPa | 0 mm | - | - | - |
| 1787539803 | 13.89° C | 66% | 1011.7 hPa | 0 mm | - | - | - |
| 1787539628 | 13.89° C | 68% | 1011.8 hPa | 0 mm | - | - | - |
| 1787538003 | 15.56° C | 56% | 1011.6 hPa | 0 mm | - | - | - |
| 1787536804 | 15.56° C | 54% | 1011.1 hPa | 0 mm | - | - | - |
| 1787535604 | 16.11° C | 52% | 1010.4 hPa | 0 mm | - | - | - |
| 1787535005 | 16.11° C | 52% | 1010.4 hPa | 0 mm | - | - | - |
| 1787534406 | 16.67° C | 50% | 1010.1 hPa | 0 mm | - | - | - |
| 1787533803 | 17.22° C | 48% | 1010.4 hPa | 0 mm | - | - | - |
| 1787533204 | 17.78° C | 46% | 1010.1 hPa | 0 mm | - | - | - |
| 1787532604 | 18.33° C | 44% | 1009.6 hPa | 0 mm | - | - | - |
| 1787532007 | 18.33° C | 42% | 1009.4 hPa | 0 mm | - | - | - |
| 1787531405 | 18.89° C | 41% | 1009.2 hPa | 0 mm | - | - | - |
| 1787530804 | 18.89° C | 41% | 1009.3 hPa | 0 mm | - | - | - |
| 1787530203 | 19.44° C | 40% | 1009.2 hPa | 0 mm | - | - | - |
| 1787529603 | 19.44° C | 43% | 1009.2 hPa | 0 mm | - | - | - |
| 1787529004 | 19.44° C | 43% | 1009.2 hPa | 0 mm | - | - | - |
| 1787528405 | 19.44° C | 42% | 1009.3 hPa | 0 mm | - | - | - |
* Rain latest hour (hover to see other rain measurements)
** Current wind speed in m/s (hover to see current wind gust speed)